KYKM/YKM METAR and TAF weather

Enter ICAO airport designator
Station Type Date Time Source
KYKM METAR 2021/05/11 21:53 UTC NOAA

KYKM 112153Z 09006KT 10SM CLR 23/M02 A3010 RMK AO2 SLP189 T02331022


Station Type Date Time Source
KYKM Decoded METAR 2021/05/11 21:53 UTC NOAA

YAKIMA AIR TERMINAL, WA, United States (KYKM) 46-34N 120-32W 324M
May 11, 2021 - 05:53 PM EDT / 2021.05.11 2153 UTC
Wind: from the E (090 degrees) at 7 MPH (6 KT):0
Visibility: 10 mile(s):0
Sky conditions: clear
Temperature: 73.9 F (23.3 C)
Dew Point: 28.0 F (-2.2 C)
Relative Humidity: 18%
Pressure (altimeter): 30.1 in. Hg (1019 hPa)
ob: KYKM 112153Z 09006KT 10SM CLR 23/M02 A3010 RMK AO2 SLP189 T02331022
cycle: 22

Station Type Date Time Source
KYKM TAF 2021/05/11 18:22 UTC NOAA

TAF KYKM 111720Z 1118/1218 VRB05KT P6SM SCT250
FM120300 28008KT P6SM BKN200

Example: see airport list